createdAt,value
2019-03-20T00:01:43.193Z,21.00
2019-03-20T00:04:07.329Z,21.33
2019-03-20T00:06:42.167Z,22.53
2019-03-20T00:09:14.622Z,31.20
2019-03-20T00:11:47.554Z,27.87
2019-03-20T00:14:19.526Z,22.20
2019-03-20T00:16:53.583Z,36.33
2019-03-20T00:19:26.266Z,24.43
2019-03-20T00:21:58.294Z,21.10
2019-03-20T00:24:31.147Z,25.33
2019-03-20T00:27:07.473Z,24.23
2019-03-20T00:29:43.094Z,19.17
2019-03-20T00:32:21.655Z,23.70
2019-03-20T00:35:00.891Z,24.90
2019-03-20T00:37:31.402Z,24.07
2019-03-20T00:40:07.542Z,22.47
2019-03-20T00:42:40.756Z,30.93
2019-03-20T00:45:14.891Z,22.97
2019-03-20T00:47:48.419Z,25.27
2019-03-20T00:50:23.297Z,26.53
2019-03-20T00:52:58.622Z,25.53
2019-03-20T00:55:31.661Z,21.40
2019-03-20T00:58:10.029Z,22.60
2019-03-20T01:00:44.257Z,27.87
2019-03-20T01:03:17.417Z,25.33
2019-03-20T01:05:49.787Z,27.63
2019-03-20T01:08:22.204Z,32.27
2019-03-20T01:10:54.286Z,25.63
2019-03-20T01:13:26.312Z,22.73
2019-03-20T01:15:58.465Z,27.23
2019-03-20T01:18:31.129Z,24.10
2019-03-20T01:21:03.001Z,29.53
2019-03-20T01:23:35.204Z,27.70
2019-03-20T01:26:07.257Z,26.93
2019-03-20T01:28:39.074Z,28.23
2019-03-20T01:31:12.355Z,25.03
2019-03-20T01:33:44.586Z,29.00
2019-03-20T01:36:16.627Z,27.50
2019-03-20T01:38:48.794Z,23.33
2019-03-20T01:41:21.246Z,29.20
2019-03-20T01:43:54.176Z,27.63
2019-03-20T01:46:26.320Z,25.43
2019-03-20T01:48:58.226Z,25.97
2019-03-20T01:51:31.721Z,22.63
2019-03-20T01:54:04.206Z,31.40
2019-03-20T01:56:37.742Z,23.83
2019-03-20T01:59:09.651Z,25.33
2019-03-20T02:01:43.567Z,24.47
2019-03-20T02:04:15.574Z,26.03
2019-03-20T02:06:47.418Z,22.27
2019-03-20T02:09:19.363Z,28.70
2019-03-20T02:11:51.494Z,27.20
2019-03-20T02:14:23.451Z,25.07
2019-03-20T02:16:55.703Z,19.37
2019-03-20T02:19:27.654Z,28.20
2019-03-20T02:22:07.236Z,26.23
2019-03-20T02:24:39.562Z,22.77
2019-03-20T02:27:12.416Z,28.30
2019-03-20T02:29:44.317Z,23.40
2019-03-20T02:32:16.701Z,26.17
2019-03-20T02:34:48.982Z,26.53
2019-03-20T02:37:20.503Z,25.10
2019-03-20T02:39:52.426Z,23.53
2019-03-20T02:42:24.285Z,32.00
2019-03-20T02:44:56.622Z,25.93
2019-03-20T02:47:28.412Z,33.23
2019-03-20T02:50:00.547Z,24.60
2019-03-20T02:52:32.381Z,30.30
2019-03-20T02:55:05.614Z,31.80
2019-03-20T02:57:40.415Z,30.10
2019-03-20T03:00:15.854Z,26.00
2019-03-20T03:02:47.549Z,32.23
2019-03-20T03:05:19.803Z,25.43
2019-03-20T03:07:51.630Z,30.53
2019-03-20T03:10:26.217Z,30.13
2019-03-20T03:12:58.300Z,30.37
2019-03-20T03:15:30.131Z,31.40
2019-03-20T03:18:03.340Z,29.20
2019-03-20T03:20:35.599Z,29.03
2019-03-20T03:23:09.041Z,28.43
2019-03-20T03:25:40.698Z,22.90
2019-03-20T03:28:13.764Z,27.33
2019-03-20T03:30:47.585Z,24.87
2019-03-20T03:33:20.178Z,27.70
2019-03-20T03:35:52.524Z,27.63
2019-03-20T03:38:24.311Z,30.47
2019-03-20T03:40:56.464Z,27.73
2019-03-20T03:43:28.719Z,23.50
2019-03-20T03:46:00.657Z,32.30
2019-03-20T03:48:32.978Z,28.27
2019-03-20T03:51:05.251Z,35.43
2019-03-20T03:53:37.165Z,33.77
2019-03-20T03:56:09.351Z,37.40
2019-03-20T03:58:41.823Z,35.57
2019-03-20T04:01:15.970Z,30.23
2019-03-20T04:03:47.876Z,31.73
2019-03-20T04:06:20.084Z,31.33
2019-03-20T04:08:52.416Z,30.63
2019-03-20T04:11:24.375Z,34.80
2019-03-20T04:13:56.423Z,34.87
2019-03-20T04:16:28.280Z,30.77
2019-03-20T04:19:00.382Z,31.67
2019-03-20T04:21:32.225Z,28.40
2019-03-20T04:24:04.101Z,33.40
2019-03-20T04:26:35.959Z,27.73
2019-03-20T04:29:07.903Z,27.07
2019-03-20T04:31:40.328Z,25.33
2019-03-20T04:34:12.342Z,27.23
2019-03-20T04:36:47.919Z,31.13
2019-03-20T04:39:17.898Z,31.97
2019-03-20T04:41:50.852Z,28.93
2019-03-20T04:44:27.529Z,25.93
2019-03-20T04:46:59.701Z,23.20
2019-03-20T04:49:35.820Z,28.03
2019-03-20T04:52:08.678Z,21.80
2019-03-20T04:54:44.052Z,26.47
2019-03-20T04:57:16.225Z,27.53
2019-03-20T04:59:49.819Z,22.97
2019-03-20T05:02:21.960Z,25.37
2019-03-20T05:04:55.555Z,22.90
2019-03-20T05:07:27.463Z,26.67
2019-03-20T05:09:59.695Z,24.40
2019-03-20T05:12:31.849Z,22.67
2019-03-20T05:15:04.687Z,19.63
2019-03-20T05:17:36.429Z,18.33
2019-03-20T05:20:10.985Z,24.93
2019-03-20T05:22:45.977Z,19.00
2019-03-20T05:25:19.042Z,20.63
2019-03-20T05:27:50.901Z,21.43
2019-03-20T05:30:24.072Z,20.67
2019-03-20T05:32:56.260Z,20.47
2019-03-20T05:35:28.488Z,17.40
2019-03-20T05:38:02.082Z,18.83
2019-03-20T05:40:35.140Z,21.07
2019-03-20T05:43:07.485Z,16.73
2019-03-20T05:45:40.078Z,18.70
2019-03-20T05:48:12.546Z,19.67
2019-03-20T05:50:44.926Z,16.93
2019-03-20T05:53:18.353Z,17.60
2019-03-20T05:55:50.539Z,15.90
2019-03-20T05:58:22.738Z,16.23
2019-03-20T06:00:55.026Z,13.73
2019-03-20T06:03:26.997Z,15.90
2019-03-20T06:05:59.349Z,19.07
2019-03-20T06:08:32.643Z,17.83
2019-03-20T06:11:05.525Z,18.87
2019-03-20T06:13:37.449Z,17.60
2019-03-20T06:16:10.493Z,20.30
2019-03-20T06:18:46.418Z,15.37
2019-03-20T06:21:18.706Z,17.23
2019-03-20T06:23:50.995Z,16.40
2019-03-20T06:26:24.801Z,14.80
2019-03-20T06:28:56.698Z,18.27
2019-03-20T06:31:28.717Z,14.63
2019-03-20T06:34:00.933Z,12.33
2019-03-20T06:36:33.062Z,17.83
2019-03-20T06:39:06.640Z,19.47
2019-03-20T06:41:38.700Z,16.00
2019-03-20T06:44:10.168Z,12.73
2019-03-20T06:46:44.228Z,15.63
2019-03-20T06:49:16.446Z,12.97
2019-03-20T06:51:47.865Z,14.70
2019-03-20T06:54:19.814Z,18.13
2019-03-20T06:56:52.374Z,16.90
2019-03-20T07:00:11.115Z,12.47
2019-03-20T07:02:48.257Z,13.27
2019-03-20T07:06:07.987Z,12.73
2019-03-20T07:08:46.559Z,14.30
2019-03-20T07:11:19.260Z,15.13
2019-03-20T07:13:51.722Z,12.70
2019-03-20T07:16:26.053Z,12.13
2019-03-20T07:18:58.574Z,13.63
2019-03-20T07:21:30.851Z,15.97
2019-03-20T07:24:02.784Z,13.17
2019-03-20T07:26:35.757Z,15.23
2019-03-20T07:29:08.017Z,14.20
2019-03-20T07:31:40.935Z,14.07
2019-03-20T07:34:12.393Z,13.67
2019-03-20T07:36:46.430Z,13.27
2019-03-20T07:39:18.404Z,16.10
2019-03-20T07:41:54.522Z,13.87
2019-03-20T07:44:26.733Z,13.17
2019-03-20T07:47:00.211Z,14.93
2019-03-20T07:49:35.630Z,17.10
2019-03-20T07:52:07.495Z,13.80
2019-03-20T07:54:39.648Z,15.10
2019-03-20T07:57:15.083Z,14.23
2019-03-20T14:48:44.384Z,7.43
2019-03-20T14:51:17.460Z,9.73
2019-03-20T14:53:49.849Z,9.63
2019-03-20T14:56:23.312Z,9.03
2019-03-20T14:58:56.135Z,8.97
2019-03-20T15:01:27.504Z,12.27
2019-03-20T15:04:02.696Z,10.73
2019-03-20T15:06:35.174Z,7.37
2019-03-20T15:09:32.144Z,9.30
2019-03-20T15:12:14.425Z,8.93
2019-03-20T15:14:46.742Z,9.20
2019-03-20T15:17:18.431Z,8.50
2019-03-20T15:19:51.959Z,9.20
2019-03-20T15:22:23.661Z,8.83
2019-03-20T15:24:55.292Z,12.83
2019-03-20T15:27:33.001Z,9.90
2019-03-20T15:30:06.602Z,10.10
2019-03-20T15:32:41.346Z,9.83
2019-03-20T15:35:14.279Z,10.10
2019-03-20T15:37:47.942Z,12.80
2019-03-20T15:40:19.447Z,7.07
2019-03-20T15:42:51.710Z,7.80
2019-03-20T15:45:33.879Z,9.37
2019-03-20T15:48:16.949Z,10.33
2019-03-20T15:50:52.208Z,9.03
2019-03-20T15:53:25.860Z,7.40
2019-03-20T15:56:00.024Z,8.60
2019-03-20T15:58:32.745Z,9.87
2019-03-20T16:01:09.184Z,8.87
2019-03-20T16:03:43.120Z,7.53
2019-03-20T16:06:18.040Z,8.90
2019-03-20T16:08:50.393Z,7.67
2019-03-20T16:11:23.455Z,9.43
2019-03-20T16:13:56.280Z,8.53
2019-03-20T16:16:28.005Z,11.37
2019-03-20T16:19:01.985Z,10.47
2019-03-20T16:21:34.458Z,9.60
2019-03-20T16:24:07.018Z,9.07
2019-03-20T16:26:39.344Z,9.23
2019-03-20T16:29:12.854Z,9.97
2019-03-20T16:31:46.374Z,9.07
2019-03-20T16:34:22.159Z,10.57
2019-03-20T16:36:55.595Z,8.77
2019-03-20T16:39:27.419Z,11.13
2019-03-20T16:41:59.714Z,7.57
2019-03-20T16:44:35.210Z,9.27
2019-03-20T16:47:08.662Z,9.40
2019-03-20T16:49:46.764Z,12.33
2019-03-20T16:52:20.643Z,10.20
2019-03-20T16:54:52.921Z,7.03
2019-03-20T16:57:28.348Z,8.60
2019-03-20T17:00:02.267Z,10.20
2019-03-20T17:02:37.549Z,10.27
2019-03-20T17:05:15.609Z,9.97
2019-03-20T17:07:47.921Z,9.77
2019-03-20T17:10:40.606Z,13.47
2019-03-20T17:13:15.591Z,10.27
2019-03-20T17:15:49.590Z,9.07
2019-03-20T17:18:23.804Z,12.30
2019-03-20T17:20:58.039Z,10.60
2019-03-20T17:23:31.664Z,9.40
2019-03-20T17:26:05.460Z,10.67
2019-03-20T17:28:39.060Z,12.03
2019-03-20T17:31:12.903Z,10.57
2019-03-20T17:33:45.138Z,10.03
2019-03-20T17:36:17.382Z,11.60
2019-03-20T17:38:50.760Z,9.00
2019-03-20T17:41:36.182Z,8.07
2019-03-20T17:44:01.910Z,10.83
2019-03-20T17:46:34.322Z,9.33
2019-03-20T17:49:08.186Z,10.23
2019-03-20T17:51:47.366Z,10.60
2019-03-20T17:54:20.371Z,15.87
2019-03-20T17:56:55.262Z,15.07
2019-03-20T17:59:27.748Z,12.13
2019-03-20T18:02:00.659Z,11.47
2019-03-20T18:04:32.787Z,10.50
2019-03-20T18:07:04.633Z,12.27
2019-03-20T18:09:38.383Z,15.10
2019-03-20T18:12:11.432Z,11.03
2019-03-20T18:14:44.723Z,11.03
2019-03-20T18:17:16.873Z,11.33
2019-03-20T18:19:51.039Z,11.60
2019-03-20T18:22:24.655Z,12.70
2019-03-20T18:24:58.112Z,13.53
2019-03-20T18:27:31.073Z,11.10
2019-03-20T18:30:03.841Z,10.13
2019-03-20T18:32:36.996Z,12.17
2019-03-20T18:35:14.309Z,12.53
2019-03-20T18:37:49.337Z,8.90
2019-03-20T18:40:26.216Z,13.30
2019-03-20T18:42:57.715Z,12.53
2019-03-20T18:45:30.028Z,12.23
2019-03-20T18:48:18.468Z,11.10
2019-03-20T18:50:54.275Z,10.77
2019-03-20T18:53:26.105Z,14.60
2019-03-20T18:55:59.212Z,12.23
2019-03-20T18:58:32.958Z,11.10
2019-03-20T19:01:04.979Z,12.83
2019-03-20T19:03:38.219Z,16.50
2019-03-20T19:06:14.469Z,17.20
2019-03-20T19:08:48.440Z,16.57
2019-03-20T19:11:20.842Z,14.70
2019-03-20T19:13:55.112Z,17.67
2019-03-20T19:16:27.986Z,14.53
2019-03-20T19:19:04.223Z,10.20
2019-03-20T19:21:38.868Z,12.00
2019-03-20T19:24:12.572Z,9.23
2019-03-20T19:26:45.828Z,9.57
2019-03-20T19:29:24.734Z,11.50
2019-03-20T19:31:59.254Z,10.97
2019-03-20T19:34:31.753Z,13.67
2019-03-20T19:37:05.355Z,13.00
2019-03-20T19:39:37.278Z,14.37
2019-03-20T19:42:19.561Z,12.63
2019-03-20T19:44:45.566Z,15.00
2019-03-20T19:47:22.095Z,16.80
2019-03-20T19:49:59.100Z,11.83
2019-03-20T19:52:32.314Z,12.90
2019-03-20T19:55:05.000Z,10.90
2019-03-20T19:57:38.863Z,11.50
2019-03-20T20:00:15.461Z,10.30
2019-03-20T20:02:49.472Z,12.57
2019-03-20T20:05:23.731Z,10.53
2019-03-20T20:07:58.378Z,7.37
2019-03-20T20:10:33.201Z,8.60
2019-03-20T20:13:06.451Z,8.53
2019-03-20T20:15:39.783Z,8.50
2019-03-20T20:18:12.234Z,12.03
2019-03-20T20:20:44.579Z,8.70
2019-03-20T20:23:19.451Z,9.60
2019-03-20T20:25:53.562Z,11.63
2019-03-20T20:28:27.602Z,9.73
2019-03-20T20:31:00.635Z,9.20
2019-03-20T20:33:34.114Z,10.67
2019-03-20T20:36:07.830Z,9.60
2019-03-20T20:38:41.111Z,9.27
2019-03-20T20:41:14.568Z,7.43
2019-03-20T20:43:47.571Z,7.93
2019-03-20T20:46:23.317Z,7.50
2019-03-20T20:48:56.730Z,11.30
2019-03-20T20:51:30.618Z,11.00
2019-03-20T20:54:03.737Z,8.07
2019-03-20T20:56:36.932Z,13.97
2019-03-20T20:59:09.423Z,9.20
2019-03-20T21:01:42.009Z,9.27
2019-03-20T21:04:15.199Z,8.93
2019-03-20T21:06:47.627Z,7.40
2019-03-20T21:09:20.627Z,13.90
2019-03-20T21:11:54.150Z,8.73
2019-03-20T21:14:27.689Z,11.27
2019-03-20T21:17:01.559Z,10.30
2019-03-20T21:19:40.058Z,9.67
2019-03-20T21:23:05.407Z,7.43
2019-03-20T21:25:39.259Z,8.37
2019-03-20T21:28:59.103Z,8.90
2019-03-20T21:31:44.541Z,10.80
2019-03-20T21:34:55.590Z,10.73
2019-03-20T21:38:05.877Z,11.00
2019-03-20T21:41:25.386Z,12.83
2019-03-20T21:44:32.874Z,14.43
2019-03-20T21:47:56.642Z,10.17
2019-03-20T21:51:22.099Z,15.97
2019-03-20T21:54:42.920Z,11.33
2019-03-20T21:57:58.616Z,14.40
2019-03-20T22:01:06.257Z,14.23
2019-03-20T22:03:39.336Z,12.67
2019-03-20T22:06:49.610Z,14.10
2019-03-20T22:09:36.032Z,13.20
2019-03-20T22:12:25.937Z,14.07
2019-03-20T22:15:12.727Z,13.17
2019-03-20T22:18:26.775Z,15.37
2019-03-20T22:21:28.380Z,17.80
2019-03-20T22:24:38.633Z,14.63
2019-03-20T22:27:34.422Z,14.77
2019-03-20T22:30:08.199Z,14.17
2019-03-20T22:33:20.297Z,13.07
2019-03-20T22:36:03.720Z,14.40
2019-03-20T22:39:17.029Z,12.27
2019-03-20T22:42:09.722Z,15.00
2019-03-20T22:44:52.148Z,12.50
2019-03-20T22:48:09.350Z,15.30
2019-03-20T22:51:13.627Z,14.80
2019-03-20T22:54:40.642Z,17.30
2019-03-20T22:57:49.647Z,15.00
2019-03-20T23:00:24.195Z,16.67
2019-03-20T23:03:07.695Z,18.73
2019-03-20T23:05:41.085Z,14.20
2019-03-20T23:08:17.675Z,20.43
2019-03-20T23:10:52.831Z,18.37
2019-03-20T23:13:26.281Z,15.27
2019-03-20T23:15:59.990Z,15.03
2019-03-20T23:18:34.446Z,15.87
2019-03-20T23:21:08.747Z,15.07
2019-03-20T23:23:42.987Z,17.63
2019-03-20T23:26:17.184Z,17.40
2019-03-20T23:28:50.368Z,19.40
2019-03-20T23:31:24.159Z,18.83
2019-03-20T23:33:58.056Z,18.27
2019-03-20T23:36:31.806Z,17.63
2019-03-20T23:39:07.230Z,15.03
2019-03-20T23:41:41.499Z,18.40
2019-03-20T23:44:14.775Z,20.97
2019-03-20T23:46:49.671Z,19.00
2019-03-20T23:49:23.967Z,15.53
2019-03-20T23:51:57.896Z,14.60
2019-03-20T23:54:38.352Z,16.93
2019-03-20T23:57:11.833Z,16.83
2019-03-20T23:59:47.798Z,18.80
